Time;durP1;ratioP1;P1;durP2;ratioP2;P2;SDS_P1;SDS_P2;PMS_P1;PMS_P2;Temp;Humidity;BMP_temperature;BMP_pressure;BME280_temperature;BME280_humidity;BME280_pressure;Samples;Min_cycle;Max_cycle;Signal;HPM_P1;HPM_P2
2022/07/06 00:00:10;;;;;;;3.40;2.80;;;21.10;69.60;;;;;;10448860;28;20646;-77
2022/07/06 00:05:12;;;;;;;3.00;2.80;;;21.00;68.90;;;;;;10444320;28;20210;-77
2022/07/06 00:10:15;;;;;;;2.87;2.20;;;21.10;70.00;;;;;;10448291;28;20225;-77
2022/07/06 00:15:18;;;;;;;3.10;2.90;;;21.00;68.60;;;;;;10445595;28;20300;-77
2022/07/06 00:20:20;;;;;;;2.70;2.53;;;21.00;69.10;;;;;;10445652;28;20258;-77
2022/07/06 00:25:22;;;;;;;3.20;2.90;;;20.90;69.10;;;;;;10453782;28;20288;-77
2022/07/06 00:30:26;;;;;;;3.53;3.10;;;20.90;69.90;;;;;;10456021;28;20747;-77
2022/07/06 00:35:28;;;;;;;3.27;2.60;;;20.80;70.40;;;;;;10456711;28;20203;-77
2022/07/06 00:40:30;;;;;;;2.90;2.70;;;20.70;69.70;;;;;;10493146;22;20255;-80
2022/07/06 00:45:34;;;;;;;3.27;3.07;;;20.70;71.40;;;;;;10490645;28;20209;-80
2022/07/06 00:50:37;;;;;;;3.13;2.90;;;20.60;71.80;;;;;;10503291;28;20220;-79
2022/07/06 00:55:40;;;;;;;3.03;2.80;;;20.60;71.70;;;;;;10499205;28;20200;-80
2022/07/06 01:00:44;;;;;;;3.10;2.93;;;20.50;71.10;;;;;;10502667;28;20585;-79
2022/07/06 01:05:46;;;;;;;3.20;2.90;;;20.50;70.90;;;;;;10493034;28;20682;-79
2022/07/06 01:10:48;;;;;;;3.40;3.10;;;20.50;70.60;;;;;;10494915;28;20282;-79
2022/07/06 01:15:53;;;;;;;3.70;3.10;;;20.40;72.40;;;;;;10484178;28;20243;-79
2022/07/06 01:21:10;;;;;;;3.87;3.40;;;20.40;71.70;;;;;;10496750;28;20227;-79
2022/07/06 01:26:14;;;;;;;3.27;3.07;;;20.30;71.40;;;;;;10497882;28;20243;-79
2022/07/06 01:31:20;;;;;;;3.37;3.17;;;20.30;70.90;;;;;;10493421;28;20266;-79
2022/07/06 01:36:23;;;;;;;2.87;2.67;;;20.30;71.40;;;;;;10493268;28;20219;-79
2022/07/06 01:41:27;;;;;;;2.83;2.63;;;20.30;71.60;;;;;;10495711;28;20221;-79
2022/07/06 01:46:29;;;;;;;3.13;2.63;;;20.40;68.80;;;;;;10493309;28;20695;-79
2022/07/06 01:51:33;;;;;;;3.17;2.93;;;20.40;69.40;;;;;;10484507;28;20228;-79
2022/07/06 01:56:36;;;;;;;3.10;2.90;;;20.40;70.10;;;;;;10481541;28;20224;-79
2022/07/06 02:01:40;;;;;;;3.33;2.97;;;20.50;71.60;;;;;;10470164;28;20221;-79
2022/07/06 02:06:43;;;;;;;2.90;2.73;;;20.50;70.00;;;;;;10489480;28;20227;-80
2022/07/06 02:11:46;;;;;;;3.13;2.83;;;20.50;68.20;;;;;;10495955;28;20222;-79
2022/07/06 02:16:50;;;;;;;3.57;3.30;;;20.60;67.80;;;;;;10487399;28;20197;-79
2022/07/06 02:21:55;;;;;;;2.93;2.63;;;20.50;69.40;;;;;;10490234;28;20220;-79
2022/07/06 02:26:57;;;;;;;3.33;2.60;;;20.50;68.80;;;;;;10495547;28;20749;-80
2022/07/06 02:32:00;;;;;;;3.30;3.10;;;20.50;68.50;;;;;;10496402;28;20312;-80
2022/07/06 02:37:04;;;;;;;3.13;2.93;;;20.50;67.70;;;;;;10481473;28;20430;-80
2022/07/06 02:42:07;;;;;;;3.10;2.90;;;20.50;67.20;;;;;;10492666;28;20323;-79
2022/07/06 02:47:10;;;;;;;3.00;2.80;;;20.50;68.50;;;;;;10487510;28;20227;-79
2022/07/06 02:52:14;;;;;;;3.40;3.13;;;20.40;68.60;;;;;;10480563;28;20285;-79
2022/07/06 02:57:16;;;;;;;3.50;3.00;;;20.30;68.20;;;;;;10473971;28;20193;-80
2022/07/06 03:02:19;;;;;;;3.20;3.00;;;20.30;67.90;;;;;;10497559;28;20300;-80
2022/07/06 03:07:23;;;;;;;3.20;3.00;;;20.20;68.80;;;;;;10474229;28;20261;-80
2022/07/06 03:12:26;;;;;;;5.00;3.70;;;20.10;70.00;;;;;;10474452;28;20671;-80
2022/07/06 03:17:29;;;;;;;5.83;3.30;;;20.10;71.30;;;;;;10491677;28;20193;-79
2022/07/06 03:22:32;;;;;;;3.27;3.07;;;20.10;70.30;;;;;;10493705;28;20224;-80
2022/07/06 03:27:36;;;;;;;4.30;4.00;;;20.10;69.50;;;;;;10473880;28;20217;-80
2022/07/06 03:32:38;;;;;;;3.80;3.60;;;20.20;71.00;;;;;;10498535;28;20220;-79
2022/07/06 03:37:44;;;;;;;3.40;3.10;;;20.10;70.40;;;;;;10500435;28;20205;-80
2022/07/06 03:42:46;;;;;;;4.57;3.33;;;20.20;69.00;;;;;;10485222;28;20228;-80
2022/07/06 03:47:49;;;;;;;3.73;3.43;;;20.10;70.00;;;;;;10482963;28;20230;-80
2022/07/06 03:52:53;;;;;;;3.87;3.57;;;20.10;70.40;;;;;;10474888;28;20220;-80
2022/07/06 03:57:55;;;;;;;3.60;3.30;;;20.10;71.70;;;;;;10489123;28;20283;-80
2022/07/06 04:02:59;;;;;;;3.20;3.00;;;20.10;69.60;;;;;;10501294;28;20267;-80
2022/07/06 04:08:07;;;;;;;3.77;3.40;;;20.10;71.10;;;;;;10497046;28;20216;-81
2022/07/06 04:13:15;;;;;;;3.70;3.50;;;20.10;71.10;;;;;;10484913;28;20224;-80
2022/07/06 04:18:17;;;;;;;4.67;4.23;;;20.10;71.00;;;;;;10467382;28;20197;-80
2022/07/06 04:23:28;;;;;;;3.80;3.50;;;20.10;72.20;;;;;;10498578;28;20679;-80
2022/07/06 04:28:31;;;;;;;4.90;4.50;;;20.10;72.50;;;;;;10514887;28;20544;-80
2022/07/06 04:33:35;;;;;;;4.10;3.83;;;20.10;70.20;;;;;;10504005;28;20196;-79
2022/07/06 04:38:38;;;;;;;3.47;3.17;;;20.10;72.00;;;;;;10479269;28;20197;-80
2022/07/06 04:43:43;;;;;;;6.10;3.97;;;20.10;72.50;;;;;;10478602;28;20228;-80
2022/07/06 04:48:49;;;;;;;4.20;3.80;;;20.10;73.30;;;;;;10473860;28;20728;-80
2022/07/06 04:53:58;;;;;;;4.30;4.00;;;20.10;72.50;;;;;;10494230;28;20193;-79
2022/07/06 04:59:00;;;;;;;4.13;3.83;;;20.10;72.60;;;;;;10476263;28;20227;-81
2022/07/06 05:04:03;;;;;;;4.00;3.70;;;20.10;73.10;;;;;;10465343;28;20211;-80
2022/07/06 05:09:07;;;;;;;4.77;4.10;;;20.10;73.70;;;;;;10487923;28;20229;-80
2022/07/06 05:14:10;;;;;;;5.10;4.60;;;20.00;74.30;;;;;;10473052;28;20228;-80
2022/07/06 05:19:12;;;;;;;4.70;4.37;;;20.00;73.90;;;;;;10490087;28;20247;-80
2022/07/06 05:24:16;;;;;;;6.67;4.00;;;20.00;74.60;;;;;;10499940;28;20204;-80
2022/07/06 05:29:18;;;;;;;4.73;4.23;;;20.00;74.80;;;;;;10492033;28;20732;-79
2022/07/06 05:34:21;;;;;;;4.67;4.27;;;20.00;74.20;;;;;;10464702;28;20197;-81
2022/07/06 05:39:26;;;;;;;5.43;4.37;;;20.00;75.30;;;;;;10486642;28;20228;-80
2022/07/06 05:44:28;;;;;;;4.43;4.10;;;20.10;75.70;;;;;;10505220;28;20300;-81
2022/07/06 05:54:51;;;;;;;4.80;4.40;;;20.10;73.40;;;;;;10489996;28;20200;-81
2022/07/06 05:59:54;;;;;;;4.33;3.93;;;20.10;74.00;;;;;;10476305;28;20231;-79
2022/07/06 06:04:56;;;;;;;4.87;4.57;;;20.20;73.70;;;;;;10481993;28;20494;-80
2022/07/06 06:09:59;;;;;;;5.93;5.00;;;20.20;74.20;;;;;;10493430;28;20224;-79
2022/07/06 06:15:02;;;;;;;4.67;4.30;;;20.20;72.60;;;;;;10492284;28;20598;-79
2022/07/06 06:20:06;;;;;;;5.10;3.20;;;20.30;72.40;;;;;;10483314;28;20251;-80
2022/07/06 06:25:09;;;;;;;5.20;4.70;;;20.30;73.90;;;;;;10492202;28;20299;-79
2022/07/06 06:30:13;;;;;;;4.33;3.97;;;20.40;73.90;;;;;;10480579;28;20259;-79
2022/07/06 06:35:15;;;;;;;4.30;4.00;;;20.40;73.00;;;;;;10492437;28;20251;-79
2022/07/06 06:40:19;;;;;;;4.37;4.07;;;20.70;73.00;;;;;;10498450;22;20229;-77
2022/07/06 06:45:21;;;;;;;4.07;3.77;;;20.90;72.80;;;;;;10493670;28;20283;-80
2022/07/06 06:50:23;;;;;;;4.80;4.40;;;21.20;72.30;;;;;;10462426;28;20728;-78
2022/07/06 06:55:27;;;;;;;5.00;3.80;;;21.40;71.80;;;;;;10477129;28;20223;-77
2022/07/06 07:00:29;;;;;;;3.87;3.57;;;21.40;71.30;;;;;;10481694;28;20738;-80
2022/07/06 07:05:31;;;;;;;4.10;3.80;;;21.50;70.90;;;;;;10497640;28;20664;-80
2022/07/06 07:10:35;;;;;;;6.63;4.03;;;21.70;71.60;;;;;;10501457;28;20319;-80
2022/07/06 07:15:37;;;;;;;5.40;3.80;;;21.90;69.50;;;;;;10502498;28;20283;-80
2022/07/06 07:20:39;;;;;;;4.13;3.83;;;22.00;68.40;;;;;;10502720;28;20220;-80
2022/07/06 07:25:43;;;;;;;3.87;3.57;;;22.20;68.20;;;;;;10503488;28;20558;-80
2022/07/06 07:30:45;;;;;;;3.73;3.43;;;22.30;68.30;;;;;;10483219;28;20224;-78
2022/07/06 07:35:47;;;;;;;3.97;3.57;;;22.50;67.20;;;;;;10495224;28;20624;-78
2022/07/06 07:40:50;;;;;;;4.10;3.80;;;22.70;65.90;;;;;;10483159;28;20235;-79
2022/07/06 07:45:53;;;;;;;3.63;3.43;;;22.90;66.50;;;;;;10490628;28;20197;-80
2022/07/06 07:50:55;;;;;;;3.60;3.30;;;23.00;65.90;;;;;;10500135;28;20656;-79
2022/07/06 07:55:58;;;;;;;4.00;3.80;;;23.20;65.30;;;;;;10479875;28;20204;-79
2022/07/06 08:01:01;;;;;;;4.67;4.27;;;23.40;64.60;;;;;;10477047;28;20266;-78
2022/07/06 08:06:03;;;;;;;4.03;3.73;;;23.60;64.00;;;;;;10478293;28;20193;-79
2022/07/06 08:11:07;;;;;;;5.03;4.00;;;23.70;63.10;;;;;;10473225;28;20229;-80
2022/07/06 08:16:09;;;;;;;4.03;3.73;;;23.90;64.40;;;;;;10497351;28;20196;-80
2022/07/06 08:21:12;;;;;;;3.73;3.47;;;24.20;63.00;;;;;;10501470;28;20224;-80
2022/07/06 08:26:15;;;;;;;3.70;3.40;;;24.50;63.10;;;;;;10502611;28;20246;-80
2022/07/06 08:31:17;;;;;;;3.43;3.13;;;24.80;62.50;;;;;;10489971;28;20600;-81
2022/07/06 08:36:19;;;;;;;3.23;3.03;;;25.10;61.70;;;;;;10507955;28;20204;-79
2022/07/06 08:41:26;;;;;;;6.87;3.10;;;25.50;61.10;;;;;;10499633;28;20303;-80
2022/07/06 08:46:32;;;;;;;2.87;2.67;;;26.00;60.20;;;;;;10500194;28;20474;-77
2022/07/06 08:51:38;;;;;;;3.30;3.10;;;26.60;58.90;;;;;;10503076;28;20216;-79
2022/07/06 08:56:41;;;;;;;3.73;3.43;;;27.10;59.30;;;;;;10494520;28;20208;-79
2022/07/06 09:01:45;;;;;;;4.30;4.00;;;27.60;58.70;;;;;;10506108;28;20231;-79
2022/07/06 09:06:48;;;;;;;4.03;3.43;;;28.10;57.20;;;;;;10501702;28;20643;-79
2022/07/06 09:11:52;;;;;;;3.13;2.83;;;28.50;56.90;;;;;;10498249;28;20725;-79
2022/07/06 09:17:04;;;;;;;4.90;3.60;;;29.00;56.40;;;;;;10470153;28;20201;-81
2022/07/06 09:22:06;;;;;;;4.00;3.57;;;29.50;54.00;;;;;;10476911;28;20651;-81
2022/07/06 09:27:16;;;;;;;2.93;2.77;;;29.70;54.00;;;;;;10488563;28;20616;-80
2022/07/06 09:32:29;;;;;;;3.77;3.47;;;30.00;54.00;;;;;;10488259;28;20231;-79
2022/07/06 09:37:31;;;;;;;3.13;2.87;;;30.30;52.50;;;;;;10502630;28;20270;-79
2022/07/06 09:42:36;;;;;;;4.13;3.93;;;30.70;52.10;;;;;;10494444;28;20801;-80
2022/07/06 09:47:41;;;;;;;3.13;3.03;;;31.20;51.50;;;;;;10463164;28;20208;-80
2022/07/06 09:52:54;;;;;;;3.20;2.90;;;31.80;51.20;;;;;;10489785;28;20213;-80
2022/07/06 09:57:58;;;;;;;4.07;3.27;;;32.20;50.10;;;;;;10449143;28;20649;-80
2022/07/06 10:03:01;;;;;;;3.97;3.13;;;32.00;49.40;;;;;;10490411;28;20247;-79
2022/07/06 10:08:05;;;;;;;3.87;3.00;;;32.50;49.00;;;;;;10491685;28;20212;-79
2022/07/06 10:13:10;;;;;;;3.13;2.93;;;33.60;49.00;;;;;;10486050;28;20312;-80
2022/07/06 10:18:12;;;;;;;6.50;3.07;;;35.00;47.10;;;;;;10482849;28;20222;-81
2022/07/06 10:23:15;;;;;;;3.37;3.10;;;35.50;46.60;;;;;;10472961;28;20254;-80
2022/07/06 10:28:22;;;;;;;3.73;3.30;;;35.00;45.70;;;;;;10475841;28;20254;-79
2022/07/06 10:33:25;;;;;;;3.87;3.67;;;33.70;46.70;;;;;;10490818;28;20589;-78
2022/07/06 10:38:32;;;;;;;3.37;3.10;;;32.30;48.20;;;;;;10478494;28;20315;-80
2022/07/06 10:43:38;;;;;;;3.20;3.10;;;30.90;49.70;;;;;;10473842;28;20262;-79
2022/07/06 10:48:41;;;;;;;5.60;3.60;;;29.90;52.00;;;;;;10447336;28;20318;-79
2022/07/06 10:53:44;;;;;;;4.50;4.13;;;29.10;53.10;;;;;;10447664;28;20230;-80
2022/07/06 10:58:52;;;;;;;3.40;3.20;;;28.50;53.60;;;;;;10481828;28;20238;-80
2022/07/06 11:04:07;;;;;;;5.67;4.30;;;27.80;54.20;;;;;;10490554;28;20763;-79
2022/07/06 11:09:11;;;;;;;3.97;3.60;;;27.20;55.20;;;;;;10476121;28;20303;-79
2022/07/06 11:14:15;;;;;;;5.87;3.47;;;26.80;56.10;;;;;;10466842;28;20204;-78
2022/07/06 11:19:20;;;;;;;4.27;3.90;;;26.60;56.80;;;;;;10471723;28;20220;-79
2022/07/06 11:24:24;;;;;;;4.53;4.13;;;26.50;57.80;;;;;;10502582;28;20207;-79
2022/07/06 11:29:29;;;;;;;3.20;3.00;;;26.50;56.90;;;;;;10499509;28;20216;-79
2022/07/06 11:34:34;;;;;;;4.70;4.37;;;26.30;58.50;;;;;;10495456;28;20200;-79
2022/07/06 11:39:39;;;;;;;5.00;4.23;;;26.40;57.40;;;;;;10474059;28;20251;-79
2022/07/06 11:44:44;;;;;;;4.97;4.47;;;26.40;57.20;;;;;;10494597;28;20196;-78
2022/07/06 11:49:51;;;;;;;3.83;3.50;;;26.30;58.20;;;;;;10498422;28;20227;-81
2022/07/06 11:55:00;;;;;;;4.37;4.00;;;26.20;58.10;;;;;;10485449;28;20201;-80
2022/07/06 12:00:04;;;;;;;4.23;3.87;;;26.10;58.50;;;;;;10494379;28;20215;-80
2022/07/06 12:05:30;;;;;;;4.70;4.30;;;26.10;58.10;;;;;;10495715;28;20254;-80
2022/07/06 12:10:34;;;;;;;7.53;4.07;;;26.10;58.90;;;;;;10499099;28;20254;-81
2022/07/06 12:15:38;;;;;;;4.73;4.33;;;26.20;58.80;;;;;;10500834;28;20219;-80
2022/07/06 12:20:42;;;;;;;4.30;3.90;;;26.20;58.10;;;;;;10495174;28;20699;-80
2022/07/06 12:25:44;;;;;;;4.83;4.20;;;26.20;57.40;;;;;;10481973;28;20664;-79
2022/07/06 12:30:48;;;;;;;4.63;4.23;;;26.20;58.20;;;;;;10505492;28;20232;-79
2022/07/06 12:35:50;;;;;;;4.30;3.90;;;26.30;58.40;;;;;;10483040;28;20222;-79
2022/07/06 12:40:52;;;;;;;4.20;3.90;;;26.20;59.40;;;;;;10498325;22;20229;-78
2022/07/06 12:45:55;;;;;;;7.30;4.00;;;26.20;58.60;;;;;;10494318;28;20247;-79
2022/07/06 12:50:57;;;;;;;4.23;3.93;;;26.20;58.70;;;;;;10483651;28;20256;-79
2022/07/06 12:56:10;;;;;;;4.40;3.73;;;26.40;58.40;;;;;;10499053;28;20204;-78
2022/07/06 13:01:17;;;;;;;4.20;3.80;;;26.60;57.90;;;;;;10499069;28;20224;-78
2022/07/06 13:06:29;;;;;;;4.40;4.07;;;26.40;56.80;;;;;;10505233;28;20563;-79
2022/07/06 13:11:33;;;;;;;3.97;3.70;;;26.00;57.60;;;;;;10478875;28;20267;-78
2022/07/06 13:16:37;;;;;;;4.10;3.90;;;25.70;58.20;;;;;;10473921;28;20213;-78
2022/07/06 13:21:39;;;;;;;3.73;3.53;;;25.60;58.20;;;;;;10450285;28;20229;-78
2022/07/06 13:26:41;;;;;;;3.53;3.33;;;25.60;57.30;;;;;;10453521;28;20684;-78
2022/07/06 13:31:44;;;;;;;4.43;4.03;;;25.60;59.60;;;;;;10446930;28;20306;-78
2022/07/06 13:36:47;;;;;;;4.07;3.80;;;25.60;58.00;;;;;;10456670;28;20277;-79
2022/07/06 13:41:49;;;;;;;3.57;3.33;;;25.50;57.90;;;;;;10458534;28;20747;-77
2022/07/06 13:46:52;;;;;;;6.07;3.97;;;25.30;58.60;;;;;;10470753;28;20608;-78
2022/07/06 13:52:02;;;;;;;6.03;3.57;;;25.20;57.80;;;;;;10452677;28;20659;-77
2022/07/06 13:57:05;;;;;;;4.63;3.43;;;25.00;58.60;;;;;;10454152;28;20208;-78
2022/07/06 14:02:08;;;;;;;3.63;3.40;;;25.10;59.00;;;;;;10473399;28;20217;-78
2022/07/06 14:07:10;;;;;;;4.27;3.23;;;25.20;57.90;;;;;;10472452;28;20691;-78
2022/07/06 14:12:12;;;;;;;3.90;3.60;;;25.10;58.30;;;;;;10459291;28;20660;-78
2022/07/06 14:17:16;;;;;;;4.20;3.90;;;25.10;58.40;;;;;;10481255;28;20244;-78
2022/07/06 14:22:19;;;;;;;3.43;3.23;;;25.20;57.80;;;;;;10446917;28;20217;-78
2022/07/06 14:27:21;;;;;;;4.00;3.60;;;25.30;57.80;;;;;;10471803;28;20660;-78
2022/07/06 14:32:24;;;;;;;5.33;3.30;;;25.30;58.40;;;;;;10483933;28;20776;-78
2022/07/06 14:37:26;;;;;;;3.40;3.20;;;25.30;57.30;;;;;;10487119;28;20262;-78
2022/07/06 14:42:29;;;;;;;4.67;3.40;;;25.10;58.10;;;;;;10481666;28;20224;-78
2022/07/06 14:47:32;;;;;;;3.87;3.43;;;25.00;57.20;;;;;;10462521;28;20235;-78
2022/07/06 14:52:45;;;;;;;4.60;3.30;;;24.90;58.60;;;;;;10488557;28;20250;-78
2022/07/06 14:57:47;;;;;;;2.70;2.50;;;24.90;57.30;;;;;;10454998;28;20196;-78
2022/07/06 15:02:51;;;;;;;3.50;2.70;;;24.90;57.90;;;;;;10461862;28;20305;-78
2022/07/06 15:07:53;;;;;;;4.40;3.40;;;24.80;57.90;;;;;;10478282;28;20614;-78
2022/07/06 15:12:56;;;;;;;2.63;2.43;;;24.80;57.90;;;;;;10471826;28;20705;-78
2022/07/06 15:17:59;;;;;;;3.27;3.00;;;24.70;58.10;;;;;;10468717;28;20235;-78
2022/07/06 15:23:01;;;;;;;4.07;3.30;;;24.60;57.40;;;;;;10457757;28;20231;-78
2022/07/06 15:28:05;;;;;;;3.20;3.00;;;24.60;56.80;;;;;;10484046;28;20253;-78
2022/07/06 15:33:09;;;;;;;2.83;2.63;;;24.50;57.10;;;;;;10460534;28;20228;-78
2022/07/06 15:38:11;;;;;;;3.17;2.97;;;24.50;57.70;;;;;;10472046;28;20193;-78
2022/07/06 15:43:13;;;;;;;3.00;2.70;;;24.40;57.20;;;;;;10458870;28;20240;-79
2022/07/06 15:48:16;;;;;;;3.40;3.10;;;24.30;57.70;;;;;;10488005;28;20196;-78
2022/07/06 15:53:19;;;;;;;4.83;2.33;;;24.30;57.50;;;;;;10508817;28;20637;-77
2022/07/06 15:58:21;;;;;;;4.83;2.90;;;24.30;57.00;;;;;;10499359;28;20201;-77
2022/07/06 16:03:25;;;;;;;2.57;2.47;;;24.40;57.60;;;;;;10481437;28;20236;-77
2022/07/06 16:08:27;;;;;;;3.17;2.97;;;24.40;56.10;;;;;;10478722;28;20205;-77
2022/07/06 16:13:29;;;;;;;2.83;2.63;;;24.40;56.40;;;;;;10502366;28;20715;-77
2022/07/06 16:18:33;;;;;;;2.80;2.63;;;24.40;56.40;;;;;;10467193;28;20288;-77
2022/07/06 16:23:35;;;;;;;3.10;2.90;;;24.50;56.10;;;;;;10499820;28;20595;-78
2022/07/06 16:28:37;;;;;;;2.80;2.43;;;24.50;56.00;;;;;;10483392;28;20212;-78
2022/07/06 16:33:41;;;;;;;3.10;2.50;;;24.60;55.90;;;;;;10502192;28;20255;-77
2022/07/06 16:38:44;;;;;;;4.10;2.30;;;24.60;56.60;;;;;;10496257;28;20207;-77
2022/07/06 16:43:47;;;;;;;5.80;2.97;;;24.60;55.40;;;;;;10498221;28;20303;-77
2022/07/06 16:48:50;;;;;;;2.80;2.60;;;24.60;55.90;;;;;;10486503;28;20197;-76
2022/07/06 16:53:52;;;;;;;2.47;2.30;;;24.50;55.30;;;;;;10487320;28;20220;-77
2022/07/06 16:58:54;;;;;;;2.80;2.63;;;24.60;54.80;;;;;;10494538;28;20205;-77
2022/07/06 17:03:58;;;;;;;2.60;2.40;;;24.50;54.30;;;;;;10496072;28;20225;-77
2022/07/06 17:09:00;;;;;;;2.23;2.00;;;24.50;53.40;;;;;;10469711;28;20205;-78
2022/07/06 17:14:02;;;;;;;2.70;2.60;;;24.40;53.30;;;;;;10491192;28;20722;-77
2022/07/06 17:19:06;;;;;;;2.20;2.00;;;24.40;52.40;;;;;;10491518;28;20609;-78
2022/07/06 17:24:08;;;;;;;2.70;2.50;;;24.40;52.30;;;;;;10493508;28;20220;-77
2022/07/06 17:29:11;;;;;;;2.67;2.47;;;24.30;52.10;;;;;;10494793;28;20204;-77
2022/07/06 17:34:14;;;;;;;3.27;2.87;;;24.20;52.40;;;;;;10471405;28;20221;-77
2022/07/06 17:39:16;;;;;;;2.70;2.50;;;24.20;52.40;;;;;;10489940;28;20209;-76
2022/07/06 17:44:19;;;;;;;2.63;2.53;;;24.20;53.10;;;;;;10491635;28;20224;-76
2022/07/06 17:49:22;;;;;;;2.60;2.50;;;24.20;53.00;;;;;;10459297;28;20219;-78
2022/07/06 17:54:24;;;;;;;3.70;3.00;;;24.20;53.90;;;;;;10481604;28;20220;-77
2022/07/06 17:59:26;;;;;;;4.17;3.87;;;24.20;52.50;;;;;;10426424;28;20289;-77
2022/07/06 18:04:30;;;;;;;5.10;4.80;;;24.00;52.00;;;;;;10452109;28;20865;-77
2022/07/06 18:09:32;;;;;;;4.90;4.00;;;23.90;52.40;;;;;;10447355;28;20216;-77
2022/07/06 18:14:34;;;;;;;4.03;3.73;;;23.80;52.40;;;;;;10467067;28;20204;-77
2022/07/06 18:19:38;;;;;;;4.13;3.47;;;23.80;51.80;;;;;;10475155;28;20222;-77
2022/07/06 18:24:40;;;;;;;3.27;3.07;;;23.70;51.70;;;;;;10448912;28;20205;-77
2022/07/06 18:29:42;;;;;;;5.40;3.87;;;23.60;52.50;;;;;;10435847;28;20244;-77
2022/07/06 18:34:48;;;;;;;4.70;3.77;;;23.50;52.00;;;;;;10461629;28;20200;-77
2022/07/06 18:39:56;;;;;;;4.00;3.60;;;23.40;51.80;;;;;;10440775;28;20228;-77
2022/07/06 18:45:03;;;;;;;3.53;3.23;;;23.30;54.20;;;;;;10480260;28;20639;-77
2022/07/06 18:50:09;;;;;;;4.10;3.77;;;23.30;53.10;;;;;;10445219;28;20236;-77
2022/07/06 18:55:11;;;;;;;4.67;3.60;;;23.30;53.70;;;;;;10454356;28;20201;-77
2022/07/06 19:00:14;;;;;;;3.70;3.50;;;23.20;53.70;;;;;;10471938;28;20221;-77
2022/07/06 19:05:23;;;;;;;4.33;3.93;;;23.20;52.80;;;;;;10475314;28;20203;-76
2022/07/06 19:10:25;;;;;;;3.50;3.27;;;23.10;52.80;;;;;;10475517;28;20773;-77
2022/07/06 19:15:27;;;;;;;3.80;2.60;;;23.00;53.00;;;;;;10466693;28;20278;-78
2022/07/06 19:20:31;;;;;;;3.20;3.00;;;22.90;53.30;;;;;;10460786;28;20247;-78
2022/07/06 19:25:33;;;;;;;3.33;3.13;;;22.70;53.80;;;;;;10475980;28;20854;-77
2022/07/06 19:30:38;;;;;;;3.27;3.03;;;22.60;54.70;;;;;;10477660;28;20320;-77
2022/07/06 19:35:42;;;;;;;3.53;2.90;;;22.50;54.90;;;;;;10467663;28;20670;-78
2022/07/06 19:40:44;;;;;;;2.90;2.57;;;22.40;55.50;;;;;;10452121;28;20228;-77
2022/07/06 19:45:49;;;;;;;3.50;3.27;;;22.30;55.80;;;;;;10469816;28;20212;-77
2022/07/06 19:50:53;;;;;;;4.40;2.60;;;22.20;56.50;;;;;;10467153;28;20228;-77
2022/07/06 19:56:00;;;;;;;5.27;2.97;;;22.10;55.40;;;;;;10460305;28;20197;-77
2022/07/06 20:01:03;;;;;;;6.47;3.37;;;22.10;56.70;;;;;;10443787;28;20217;-77
2022/07/06 20:06:08;;;;;;;2.90;2.70;;;22.10;56.60;;;;;;10436773;28;20204;-77
2022/07/06 20:11:13;;;;;;;2.93;2.73;;;22.00;56.60;;;;;;10458619;28;20235;-76
2022/07/06 20:16:15;;;;;;;2.90;2.70;;;21.90;56.90;;;;;;10490074;28;20292;-76
2022/07/06 20:21:23;;;;;;;2.87;2.50;;;21.80;58.40;;;;;;10466113;28;20239;-77
2022/07/06 20:26:25;;;;;;;2.70;2.50;;;21.70;63.20;;;;;;10483474;28;20208;-77
2022/07/06 20:31:28;;;;;;;2.97;2.73;;;21.70;65.70;;;;;;10446515;28;20749;-77
2022/07/06 20:36:31;;;;;;;3.03;2.77;;;21.60;66.80;;;;;;10483217;28;20228;-77
2022/07/06 20:41:33;;;;;;;4.70;2.80;;;21.50;60.20;;;;;;10476335;28;20252;-77
2022/07/06 20:46:36;;;;;;;3.23;2.67;;;21.50;58.90;;;;;;10459288;28;20406;-77
2022/07/06 20:51:39;;;;;;;2.73;2.53;;;21.40;58.50;;;;;;10485596;28;20251;-76
2022/07/06 20:56:42;;;;;;;3.63;3.33;;;21.40;59.00;;;;;;10479954;28;20215;-76
2022/07/06 21:01:44;;;;;;;3.13;2.93;;;21.40;60.60;;;;;;10452424;28;20223;-76
2022/07/06 21:06:47;;;;;;;2.97;2.70;;;21.30;60.10;;;;;;10475210;28;20211;-77
2022/07/06 21:11:50;;;;;;;3.63;3.30;;;21.30;60.50;;;;;;10468281;28;20648;-77
2022/07/06 21:16:52;;;;;;;3.90;3.60;;;21.20;63.10;;;;;;10468350;28;20699;-76
2022/07/06 21:21:55;;;;;;;3.53;3.30;;;21.10;60.90;;;;;;10485907;28;20217;-76
2022/07/06 21:26:57;;;;;;;3.40;3.07;;;21.10;63.80;;;;;;10489013;28;20196;-77
2022/07/06 21:32:00;;;;;;;3.80;3.50;;;21.10;65.40;;;;;;10471685;28;20224;-77
2022/07/06 21:37:04;;;;;;;7.20;3.10;;;21.10;69.00;;;;;;10460019;28;20205;-76
2022/07/06 21:42:07;;;;;;;4.37;3.20;;;21.00;62.80;;;;;;10465784;28;20321;-76
2022/07/06 21:47:09;;;;;;;3.90;3.43;;;21.00;60.50;;;;;;10465102;28;20206;-77
2022/07/06 21:52:12;;;;;;;3.50;3.20;;;20.80;61.30;;;;;;10481860;28;20741;-77
2022/07/06 21:57:15;;;;;;;6.50;3.43;;;20.70;62.20;;;;;;10464985;28;20209;-76
2022/07/06 22:02:23;;;;;;;3.10;2.90;;;20.60;62.20;;;;;;10451070;28;20221;-77
2022/07/06 22:07:27;;;;;;;5.30;2.20;;;20.50;62.30;;;;;;10473087;28;20204;-76
2022/07/06 22:12:29;;;;;;;2.70;2.50;;;20.30;62.10;;;;;;10468298;28;20670;-77
2022/07/06 22:17:32;;;;;;;3.33;3.13;;;20.20;62.40;;;;;;10482063;28;20199;-77
2022/07/06 22:22:41;;;;;;;2.90;2.70;;;20.00;62.60;;;;;;10465129;28;20300;-77
2022/07/06 22:27:46;;;;;;;3.27;2.80;;;19.80;63.20;;;;;;10464578;28;20205;-76
2022/07/06 22:32:48;;;;;;;3.07;2.87;;;19.70;63.30;;;;;;10465661;28;20235;-75
2022/07/06 22:37:53;;;;;;;5.13;3.10;;;19.70;64.50;;;;;;10467705;28;20300;-76
2022/07/06 22:42:58;;;;;;;3.83;2.50;;;19.60;65.90;;;;;;10465560;28;20220;-79
2022/07/06 22:48:01;;;;;;;3.17;2.97;;;19.50;64.20;;;;;;10443043;28;20623;-79
2022/07/06 22:53:07;;;;;;;2.87;2.70;;;19.40;65.60;;;;;;10467377;28;20232;-79
2022/07/06 22:58:16;;;;;;;3.13;2.87;;;19.20;65.30;;;;;;10480517;28;20325;-77
2022/07/06 23:03:22;;;;;;;3.90;3.10;;;19.20;66.10;;;;;;10448963;28;20311;-78
2022/07/06 23:08:26;;;;;;;4.77;2.90;;;19.20;65.80;;;;;;10475493;28;20518;-78
2022/07/06 23:13:35;;;;;;;4.00;3.10;;;19.10;65.50;;;;;;10468820;28;20309;-79
2022/07/06 23:18:42;;;;;;;3.10;2.80;;;19.00;66.70;;;;;;10472673;28;20205;-79
2022/07/06 23:23:46;;;;;;;3.47;2.87;;;19.00;66.00;;;;;;10489065;28;20293;-79
2022/07/06 23:41:32;;;;;;;3.30;2.97;;;19.10;67.20;;;;;;10359059;28;20222;-77
2022/07/06 23:46:34;;;;;;;3.17;2.97;;;19.20;67.60;;;;;;10485052;28;20218;-77
2022/07/06 23:51:36;;;;;;;2.90;2.20;;;19.20;66.50;;;;;;10471154;28;20220;-76
2022/07/06 23:56:40;;;;;;;3.37;2.63;;;19.20;66.40;;;;;;10496245;28;20576;-77
